sensor_id;sensor_type;location;lat;lon;timestamp;P1;durP1;ratioP1;P2;durP2;ratioP2
69783;SDS011;57054;51.978;4.498;2023-06-24T00:02:08;1.50;;;1.40;;
69783;SDS011;57054;51.978;4.498;2023-06-24T00:04:33;1.27;;;1.20;;
69783;SDS011;57054;51.978;4.498;2023-06-24T00:06:59;1.40;;;1.30;;
69783;SDS011;57054;51.978;4.498;2023-06-24T00:09:26;1.55;;;1.45;;
69783;SDS011;57054;51.978;4.498;2023-06-24T00:11:53;1.60;;;1.50;;
69783;SDS011;57054;51.978;4.498;2023-06-24T00:14:19;1.40;;;1.30;;
69783;SDS011;57054;51.978;4.498;2023-06-24T00:16:46;1.60;;;1.48;;
69783;SDS011;57054;51.978;4.498;2023-06-24T00:19:14;1.37;;;1.27;;
69783;SDS011;57054;51.978;4.498;2023-06-24T00:21:39;1.52;;;1.42;;
69783;SDS011;57054;51.978;4.498;2023-06-24T00:24:05;1.80;;;1.70;;
69783;SDS011;57054;51.978;4.498;2023-06-24T00:26:30;1.63;;;1.52;;
69783;SDS011;57054;51.978;4.498;2023-06-24T00:28:57;1.67;;;1.58;;
69783;SDS011;57054;51.978;4.498;2023-06-24T00:31:23;1.75;;;1.65;;
69783;SDS011;57054;51.978;4.498;2023-06-24T00:33:48;4.18;;;1.50;;
69783;SDS011;57054;51.978;4.498;2023-06-24T00:36:14;1.73;;;1.63;;
69783;SDS011;57054;51.978;4.498;2023-06-24T00:38:40;1.60;;;1.50;;
69783;SDS011;57054;51.978;4.498;2023-06-24T00:41:05;1.80;;;1.70;;
69783;SDS011;57054;51.978;4.498;2023-06-24T00:43:32;1.50;;;1.40;;
69783;SDS011;57054;51.978;4.498;2023-06-24T00:45:58;1.88;;;1.77;;
69783;SDS011;57054;51.978;4.498;2023-06-24T00:48:24;1.55;;;1.45;;
69783;SDS011;57054;51.978;4.498;2023-06-24T00:50:50;1.90;;;1.70;;
69783;SDS011;57054;51.978;4.498;2023-06-24T00:53:16;1.85;;;1.70;;
69783;SDS011;57054;51.978;4.498;2023-06-24T00:55:42;1.27;;;1.25;;
69783;SDS011;57054;51.978;4.498;2023-06-24T00:58:08;1.60;;;1.50;;
69783;SDS011;57054;51.978;4.498;2023-06-24T01:00:34;1.90;;;1.80;;
69783;SDS011;57054;51.978;4.498;2023-06-24T01:02:59;1.70;;;1.60;;
69783;SDS011;57054;51.978;4.498;2023-06-24T01:05:28;1.42;;;1.33;;
69783;SDS011;57054;51.978;4.498;2023-06-24T01:08:00;2.03;;;1.92;;
69783;SDS011;57054;51.978;4.498;2023-06-24T01:10:26;1.50;;;1.40;;
69783;SDS011;57054;51.978;4.498;2023-06-24T01:12:52;1.80;;;1.70;;
69783;SDS011;57054;51.978;4.498;2023-06-24T01:15:17;1.90;;;1.60;;
69783;SDS011;57054;51.978;4.498;2023-06-24T01:17:50;3.55;;;1.70;;
69783;SDS011;57054;51.978;4.498;2023-06-24T01:20:29;2.17;;;1.90;;
69783;SDS011;57054;51.978;4.498;2023-06-24T01:36:43;1.60;;;1.50;;
69783;SDS011;57054;51.978;4.498;2023-06-24T01:39:15;2.88;;;1.75;;
69783;SDS011;57054;51.978;4.498;2023-06-24T01:41:45;2.30;;;2.10;;
69783;SDS011;57054;51.978;4.498;2023-06-24T01:44:16;2.15;;;2.03;;
69783;SDS011;57054;51.978;4.498;2023-06-24T01:46:43;2.05;;;1.88;;
69783;SDS011;57054;51.978;4.498;2023-06-24T01:49:11;2.10;;;2.00;;
69783;SDS011;57054;51.978;4.498;2023-06-24T01:51:39;2.20;;;2.00;;
69783;SDS011;57054;51.978;4.498;2023-06-24T01:54:07;2.05;;;1.88;;
69783;SDS011;57054;51.978;4.498;2023-06-24T01:56:38;1.98;;;1.88;;
69783;SDS011;57054;51.978;4.498;2023-06-24T01:59:06;2.72;;;2.13;;
69783;SDS011;57054;51.978;4.498;2023-06-24T02:01:34;2.05;;;1.95;;
69783;SDS011;57054;51.978;4.498;2023-06-24T02:04:01;1.95;;;1.85;;
69783;SDS011;57054;51.978;4.498;2023-06-24T02:06:28;2.50;;;2.03;;
69783;SDS011;57054;51.978;4.498;2023-06-24T02:08:55;1.80;;;1.70;;
69783;SDS011;57054;51.978;4.498;2023-06-24T02:11:23;2.65;;;2.05;;
69783;SDS011;57054;51.978;4.498;2023-06-24T02:13:49;2.58;;;2.22;;
69783;SDS011;57054;51.978;4.498;2023-06-24T02:16:16;2.28;;;2.17;;
69783;SDS011;57054;51.978;4.498;2023-06-24T02:18:42;2.40;;;1.88;;
69783;SDS011;57054;51.978;4.498;2023-06-24T02:21:09;1.90;;;1.80;;
69783;SDS011;57054;51.978;4.498;2023-06-24T02:23:36;4.88;;;2.72;;
69783;SDS011;57054;51.978;4.498;2023-06-24T02:26:02;2.60;;;2.40;;
69783;SDS011;57054;51.978;4.498;2023-06-24T02:28:29;2.42;;;2.22;;
69783;SDS011;57054;51.978;4.498;2023-06-24T02:30:55;2.50;;;2.30;;
69783;SDS011;57054;51.978;4.498;2023-06-24T02:33:23;2.80;;;2.00;;
69783;SDS011;57054;51.978;4.498;2023-06-24T02:35:48;2.70;;;2.20;;
69783;SDS011;57054;51.978;4.498;2023-06-24T02:38:14;2.15;;;1.95;;
69783;SDS011;57054;51.978;4.498;2023-06-24T02:40:39;2.50;;;2.30;;
69783;SDS011;57054;51.978;4.498;2023-06-24T02:43:07;2.40;;;2.20;;
69783;SDS011;57054;51.978;4.498;2023-06-24T02:45:33;2.20;;;2.10;;
69783;SDS011;57054;51.978;4.498;2023-06-24T02:47:59;2.50;;;2.30;;
69783;SDS011;57054;51.978;4.498;2023-06-24T02:50:25;2.38;;;2.20;;
69783;SDS011;57054;51.978;4.498;2023-06-24T02:52:52;3.10;;;2.40;;
69783;SDS011;57054;51.978;4.498;2023-06-24T02:55:17;2.58;;;2.42;;
69783;SDS011;57054;51.978;4.498;2023-06-24T02:57:43;2.10;;;2.00;;
69783;SDS011;57054;51.978;4.498;2023-06-24T03:00:09;2.67;;;2.47;;
69783;SDS011;57054;51.978;4.498;2023-06-24T03:05:03;4.03;;;2.33;;
69783;SDS011;57054;51.978;4.498;2023-06-24T03:07:31;2.95;;;2.42;;
69783;SDS011;57054;51.978;4.498;2023-06-24T03:10:00;2.28;;;2.10;;
69783;SDS011;57054;51.978;4.498;2023-06-24T03:12:27;2.13;;;1.92;;
69783;SDS011;57054;51.978;4.498;2023-06-24T03:14:53;2.58;;;2.35;;
69783;SDS011;57054;51.978;4.498;2023-06-24T03:17:18;2.60;;;2.40;;
69783;SDS011;57054;51.978;4.498;2023-06-24T03:19:44;2.70;;;2.50;;
69783;SDS011;57054;51.978;4.498;2023-06-24T03:22:09;2.40;;;2.20;;
69783;SDS011;57054;51.978;4.498;2023-06-24T03:24:34;2.45;;;2.25;;
69783;SDS011;57054;51.978;4.498;2023-06-24T03:27:00;2.58;;;2.38;;
69783;SDS011;57054;51.978;4.498;2023-06-24T03:29:25;2.50;;;2.30;;
69783;SDS011;57054;51.978;4.498;2023-06-24T03:31:51;2.80;;;2.60;;
69783;SDS011;57054;51.978;4.498;2023-06-24T03:34:16;2.65;;;2.45;;
69783;SDS011;57054;51.978;4.498;2023-06-24T03:36:42;2.67;;;2.47;;
69783;SDS011;57054;51.978;4.498;2023-06-24T03:39:07;2.80;;;2.60;;
69783;SDS011;57054;51.978;4.498;2023-06-24T03:41:33;2.92;;;2.72;;
69783;SDS011;57054;51.978;4.498;2023-06-24T03:43:58;3.13;;;2.72;;
69783;SDS011;57054;51.978;4.498;2023-06-24T03:46:23;2.83;;;2.63;;
69783;SDS011;57054;51.978;4.498;2023-06-24T03:48:50;2.72;;;2.53;;
69783;SDS011;57054;51.978;4.498;2023-06-24T03:51:16;2.97;;;2.47;;
69783;SDS011;57054;51.978;4.498;2023-06-24T03:53:41;3.03;;;2.22;;
69783;SDS011;57054;51.978;4.498;2023-06-24T03:56:07;2.20;;;2.10;;
69783;SDS011;57054;51.978;4.498;2023-06-24T03:58:32;2.30;;;2.20;;
69783;SDS011;57054;51.978;4.498;2023-06-24T04:01:01;2.63;;;2.42;;
69783;SDS011;57054;51.978;4.498;2023-06-24T04:03:27;2.30;;;2.20;;
69783;SDS011;57054;51.978;4.498;2023-06-24T04:05:54;2.42;;;2.22;;
69783;SDS011;57054;51.978;4.498;2023-06-24T04:08:20;2.38;;;2.28;;
69783;SDS011;57054;51.978;4.498;2023-06-24T04:10:46;2.70;;;2.50;;
69783;SDS011;57054;51.978;4.498;2023-06-24T04:13:12;2.50;;;2.30;;
69783;SDS011;57054;51.978;4.498;2023-06-24T04:15:37;2.88;;;2.67;;
69783;SDS011;57054;51.978;4.498;2023-06-24T04:18:03;2.50;;;2.30;;
69783;SDS011;57054;51.978;4.498;2023-06-24T04:20:28;2.60;;;2.40;;
69783;SDS011;57054;51.978;4.498;2023-06-24T04:22:54;2.70;;;2.50;;
69783;SDS011;57054;51.978;4.498;2023-06-24T04:25:19;2.88;;;2.58;;
69783;SDS011;57054;51.978;4.498;2023-06-24T04:27:44;2.92;;;2.72;;
69783;SDS011;57054;51.978;4.498;2023-06-24T04:30:10;4.18;;;3.05;;
69783;SDS011;57054;51.978;4.498;2023-06-24T04:32:36;3.03;;;2.83;;
69783;SDS011;57054;51.978;4.498;2023-06-24T04:35:01;2.70;;;2.50;;
69783;SDS011;57054;51.978;4.498;2023-06-24T04:37:27;2.80;;;2.60;;
69783;SDS011;57054;51.978;4.498;2023-06-24T04:39:52;3.10;;;2.85;;
69783;SDS011;57054;51.978;4.498;2023-06-24T04:42:17;2.90;;;2.58;;
69783;SDS011;57054;51.978;4.498;2023-06-24T04:44:43;2.47;;;2.38;;
69783;SDS011;57054;51.978;4.498;2023-06-24T04:47:08;2.88;;;2.67;;
69783;SDS011;57054;51.978;4.498;2023-06-24T04:49:33;2.88;;;2.67;;
69783;SDS011;57054;51.978;4.498;2023-06-24T04:52:02;3.38;;;2.50;;
69783;SDS011;57054;51.978;4.498;2023-06-24T04:54:27;2.88;;;2.67;;
69783;SDS011;57054;51.978;4.498;2023-06-24T04:56:53;3.30;;;3.00;;
69783;SDS011;57054;51.978;4.498;2023-06-24T04:59:20;3.25;;;3.05;;
69783;SDS011;57054;51.978;4.498;2023-06-24T05:01:49;3.53;;;3.15;;
69783;SDS011;57054;51.978;4.498;2023-06-24T05:04:14;3.25;;;3.00;;
69783;SDS011;57054;51.978;4.498;2023-06-24T05:06:40;3.33;;;2.90;;
69783;SDS011;57054;51.978;4.498;2023-06-24T05:09:05;3.42;;;3.13;;
69783;SDS011;57054;51.978;4.498;2023-06-24T05:11:30;3.38;;;3.17;;
69783;SDS011;57054;51.978;4.498;2023-06-24T05:13:56;3.00;;;2.80;;
69783;SDS011;57054;51.978;4.498;2023-06-24T05:16:21;3.08;;;2.80;;
69783;SDS011;57054;51.978;4.498;2023-06-24T05:18:48;3.28;;;3.08;;
69783;SDS011;57054;51.978;4.498;2023-06-24T05:21:14;3.25;;;2.97;;
69783;SDS011;57054;51.978;4.498;2023-06-24T05:23:39;4.05;;;3.65;;
69783;SDS011;57054;51.978;4.498;2023-06-24T05:26:05;3.90;;;3.60;;
69783;SDS011;57054;51.978;4.498;2023-06-24T05:28:30;4.50;;;3.33;;
69783;SDS011;57054;51.978;4.498;2023-06-24T05:30:56;4.13;;;3.72;;
69783;SDS011;57054;51.978;4.498;2023-06-24T05:33:22;3.53;;;3.30;;
69783;SDS011;57054;51.978;4.498;2023-06-24T05:35:47;2.85;;;2.65;;
69783;SDS011;57054;51.978;4.498;2023-06-24T05:38:12;4.50;;;4.10;;
69783;SDS011;57054;51.978;4.498;2023-06-24T05:40:38;3.70;;;3.40;;
69783;SDS011;57054;51.978;4.498;2023-06-24T05:43:03;4.13;;;3.83;;
69783;SDS011;57054;51.978;4.498;2023-06-24T05:45:29;3.38;;;3.08;;
69783;SDS011;57054;51.978;4.498;2023-06-24T05:47:54;3.83;;;3.60;;
69783;SDS011;57054;51.978;4.498;2023-06-24T05:50:19;4.07;;;3.67;;
69783;SDS011;57054;51.978;4.498;2023-06-24T05:52:45;3.60;;;3.20;;
69783;SDS011;57054;51.978;4.498;2023-06-24T05:55:10;4.78;;;4.30;;
69783;SDS011;57054;51.978;4.498;2023-06-24T05:57:38;5.63;;;4.20;;
69783;SDS011;57054;51.978;4.498;2023-06-24T06:00:04;3.45;;;3.15;;
69783;SDS011;57054;51.978;4.498;2023-06-24T06:02:30;3.38;;;3.17;;
69783;SDS011;57054;51.978;4.498;2023-06-24T06:04:55;3.70;;;3.40;;
69783;SDS011;57054;51.978;4.498;2023-06-24T06:07:21;3.38;;;3.08;;
69783;SDS011;57054;51.978;4.498;2023-06-24T06:09:46;4.57;;;4.13;;
69783;SDS011;57054;51.978;4.498;2023-06-24T06:12:11;4.38;;;3.97;;
69783;SDS011;57054;51.978;4.498;2023-06-24T06:14:37;5.00;;;3.60;;
69783;SDS011;57054;51.978;4.498;2023-06-24T06:17:02;4.05;;;3.75;;
69783;SDS011;57054;51.978;4.498;2023-06-24T06:19:28;3.72;;;3.35;;
69783;SDS011;57054;51.978;4.498;2023-06-24T06:21:53;3.45;;;3.17;;
69783;SDS011;57054;51.978;4.498;2023-06-24T06:24:18;3.13;;;2.92;;
69783;SDS011;57054;51.978;4.498;2023-06-24T06:26:44;2.83;;;2.63;;
69783;SDS011;57054;51.978;4.498;2023-06-24T06:29:10;3.25;;;3.05;;
69783;SDS011;57054;51.978;4.498;2023-06-24T06:31:36;3.35;;;2.92;;
69783;SDS011;57054;51.978;4.498;2023-06-24T06:34:01;4.50;;;4.10;;
69783;SDS011;57054;51.978;4.498;2023-06-24T06:36:27;3.30;;;3.08;;
69783;SDS011;57054;51.978;4.498;2023-06-24T06:38:53;3.33;;;3.03;;
69783;SDS011;57054;51.978;4.498;2023-06-24T06:41:18;4.97;;;3.90;;
69783;SDS011;57054;51.978;4.498;2023-06-24T06:43:49;4.10;;;3.10;;
69783;SDS011;57054;51.978;4.498;2023-06-24T06:48:43;3.33;;;3.10;;
69783;SDS011;57054;51.978;4.498;2023-06-24T06:51:08;3.10;;;2.33;;
69783;SDS011;57054;51.978;4.498;2023-06-24T06:53:33;3.08;;;2.88;;
69783;SDS011;57054;51.978;4.498;2023-06-24T06:55:59;5.05;;;4.57;;
69783;SDS011;57054;51.978;4.498;2023-06-24T06:58:24;6.22;;;3.78;;
69783;SDS011;57054;51.978;4.498;2023-06-24T07:00:50;3.47;;;3.17;;
69783;SDS011;57054;51.978;4.498;2023-06-24T07:03:15;3.92;;;3.63;;
69783;SDS011;57054;51.978;4.498;2023-06-24T07:05:41;4.57;;;3.83;;
69783;SDS011;57054;51.978;4.498;2023-06-24T07:08:06;4.75;;;4.10;;
69783;SDS011;57054;51.978;4.498;2023-06-24T07:10:32;3.35;;;3.05;;
69783;SDS011;57054;51.978;4.498;2023-06-24T07:12:57;3.05;;;2.83;;
69783;SDS011;57054;51.978;4.498;2023-06-24T07:15:24;4.43;;;3.45;;
69783;SDS011;57054;51.978;4.498;2023-06-24T07:17:50;3.85;;;3.40;;
69783;SDS011;57054;51.978;4.498;2023-06-24T07:20:16;5.35;;;4.70;;
69783;SDS011;57054;51.978;4.498;2023-06-24T07:22:41;4.30;;;4.00;;
69783;SDS011;57054;51.978;4.498;2023-06-24T07:25:06;4.57;;;3.92;;
69783;SDS011;57054;51.978;4.498;2023-06-24T07:27:32;3.38;;;3.15;;
69783;SDS011;57054;51.978;4.498;2023-06-24T07:29:57;3.30;;;3.10;;
69783;SDS011;57054;51.978;4.498;2023-06-24T07:32:23;4.95;;;3.83;;
69783;SDS011;57054;51.978;4.498;2023-06-24T07:34:48;4.07;;;3.67;;
69783;SDS011;57054;51.978;4.498;2023-06-24T07:37:14;4.32;;;3.85;;
69783;SDS011;57054;51.978;4.498;2023-06-24T07:39:39;6.30;;;3.97;;
69783;SDS011;57054;51.978;4.498;2023-06-24T07:42:05;7.88;;;3.85;;
69783;SDS011;57054;51.978;4.498;2023-06-24T07:44:30;4.25;;;3.85;;
69783;SDS011;57054;51.978;4.498;2023-06-24T07:46:55;4.00;;;3.60;;
69783;SDS011;57054;51.978;4.498;2023-06-24T07:49:21;4.07;;;3.00;;
69783;SDS011;57054;51.978;4.498;2023-06-24T07:51:46;4.47;;;4.07;;
69783;SDS011;57054;51.978;4.498;2023-06-24T07:54:12;4.40;;;3.50;;
69783;SDS011;57054;51.978;4.498;2023-06-24T07:56:37;7.70;;;5.68;;
69783;SDS011;57054;51.978;4.498;2023-06-24T07:59:02;4.85;;;4.35;;
69783;SDS011;57054;51.978;4.498;2023-06-24T08:01:28;4.85;;;4.50;;
69783;SDS011;57054;51.978;4.498;2023-06-24T08:03:53;3.97;;;3.60;;
69783;SDS011;57054;51.978;4.498;2023-06-24T08:06:19;3.92;;;3.63;;
69783;SDS011;57054;51.978;4.498;2023-06-24T08:08:45;3.95;;;3.65;;
69783;SDS011;57054;51.978;4.498;2023-06-24T08:11:13;3.63;;;3.33;;
69783;SDS011;57054;51.978;4.498;2023-06-24T08:13:39;3.70;;;3.40;;
69783;SDS011;57054;51.978;4.498;2023-06-24T08:16:04;3.60;;;3.30;;
69783;SDS011;57054;51.978;4.498;2023-06-24T08:18:30;3.78;;;3.47;;
69783;SDS011;57054;51.978;4.498;2023-06-24T08:20:55;3.80;;;3.50;;
69783;SDS011;57054;51.978;4.498;2023-06-24T08:23:21;6.53;;;5.18;;
69783;SDS011;57054;51.978;4.498;2023-06-24T08:25:46;6.03;;;4.70;;
69783;SDS011;57054;51.978;4.498;2023-06-24T08:28:11;9.38;;;6.25;;
69783;SDS011;57054;51.978;4.498;2023-06-24T08:30:37;6.65;;;5.05;;
69783;SDS011;57054;51.978;4.498;2023-06-24T08:33:02;5.30;;;4.80;;
69783;SDS011;57054;51.978;4.498;2023-06-24T08:35:28;4.60;;;4.03;;
69783;SDS011;57054;51.978;4.498;2023-06-24T08:37:53;4.90;;;4.28;;
69783;SDS011;57054;51.978;4.498;2023-06-24T08:40:18;9.65;;;6.90;;
69783;SDS011;57054;51.978;4.498;2023-06-24T08:42:44;6.40;;;5.30;;
69783;SDS011;57054;51.978;4.498;2023-06-24T08:45:10;8.00;;;6.00;;
69783;SDS011;57054;51.978;4.498;2023-06-24T08:47:35;12.07;;;6.60;;
69783;SDS011;57054;51.978;4.498;2023-06-24T08:50:02;11.07;;;6.40;;
69783;SDS011;57054;51.978;4.498;2023-06-24T08:52:36;5.22;;;4.72;;
69783;SDS011;57054;51.978;4.498;2023-06-24T08:55:04;6.65;;;6.05;;
69783;SDS011;57054;51.978;4.498;2023-06-24T08:57:31;8.38;;;6.47;;
69783;SDS011;57054;51.978;4.498;2023-06-24T08:59:56;8.68;;;5.22;;
69783;SDS011;57054;51.978;4.498;2023-06-24T09:02:22;8.77;;;6.07;;
69783;SDS011;57054;51.978;4.498;2023-06-24T09:04:47;5.80;;;5.28;;
69783;SDS011;57054;51.978;4.498;2023-06-24T09:07:23;8.05;;;5.47;;
69783;SDS011;57054;51.978;4.498;2023-06-24T09:09:51;4.55;;;4.13;;
69783;SDS011;57054;51.978;4.498;2023-06-24T09:12:16;6.95;;;5.60;;
69783;SDS011;57054;51.978;4.498;2023-06-24T09:14:41;6.70;;;4.88;;
69783;SDS011;57054;51.978;4.498;2023-06-24T09:17:13;4.60;;;4.20;;
69783;SDS011;57054;51.978;4.498;2023-06-24T09:19:38;6.70;;;5.13;;
69783;SDS011;57054;51.978;4.498;2023-06-24T09:22:05;6.85;;;5.30;;
69783;SDS011;57054;51.978;4.498;2023-06-24T09:24:34;4.82;;;4.43;;
69783;SDS011;57054;51.978;4.498;2023-06-24T09:27:01;5.95;;;5.43;;
69783;SDS011;57054;51.978;4.498;2023-06-24T09:29:28;5.63;;;5.13;;
69783;SDS011;57054;51.978;4.498;2023-06-24T09:31:56;6.07;;;5.47;;
69783;SDS011;57054;51.978;4.498;2023-06-24T09:34:24;5.90;;;4.60;;
69783;SDS011;57054;51.978;4.498;2023-06-24T09:36:53;6.93;;;5.25;;
69783;SDS011;57054;51.978;4.498;2023-06-24T09:39:20;7.40;;;5.40;;
69783;SDS011;57054;51.978;4.498;2023-06-24T09:41:59;9.38;;;6.43;;
69783;SDS011;57054;51.978;4.498;2023-06-24T09:44:28;13.25;;;6.30;;
69783;SDS011;57054;51.978;4.498;2023-06-24T09:46:54;7.20;;;5.32;;
69783;SDS011;57054;51.978;4.498;2023-06-24T09:49:21;10.68;;;6.18;;
69783;SDS011;57054;51.978;4.498;2023-06-24T09:51:48;9.75;;;5.72;;
69783;SDS011;57054;51.978;4.498;2023-06-24T09:54:14;4.82;;;4.50;;
69783;SDS011;57054;51.978;4.498;2023-06-24T09:56:45;9.52;;;6.30;;
69783;SDS011;57054;51.978;4.498;2023-06-24T09:59:17;4.45;;;4.03;;
69783;SDS011;57054;51.978;4.498;2023-06-24T10:01:44;4.80;;;4.40;;
69783;SDS011;57054;51.978;4.498;2023-06-24T10:04:18;6.38;;;4.45;;
69783;SDS011;57054;51.978;4.498;2023-06-24T10:06:45;4.40;;;4.00;;
69783;SDS011;57054;51.978;4.498;2023-06-24T10:09:10;10.60;;;5.55;;
69783;SDS011;57054;51.978;4.498;2023-06-24T10:11:38;8.60;;;6.10;;
69783;SDS011;57054;51.978;4.498;2023-06-24T10:14:07;6.32;;;4.95;;
69783;SDS011;57054;51.978;4.498;2023-06-24T10:16:32;6.63;;;5.07;;
69783;SDS011;57054;51.978;4.498;2023-06-24T10:19:02;5.47;;;4.28;;
69783;SDS011;57054;51.978;4.498;2023-06-24T10:24:31;5.72;;;4.95;;
69783;SDS011;57054;51.978;4.498;2023-06-24T10:27:04;5.15;;;3.80;;
69783;SDS011;57054;51.978;4.498;2023-06-24T10:29:33;5.38;;;4.88;;
69783;SDS011;57054;51.978;4.498;2023-06-24T10:32:03;5.95;;;4.40;;
69783;SDS011;57054;51.978;4.498;2023-06-24T10:34:33;6.53;;;4.55;;
69783;SDS011;57054;51.978;4.498;2023-06-24T10:37:17;5.70;;;5.18;;
69783;SDS011;57054;51.978;4.498;2023-06-24T10:39:52;6.75;;;5.20;;
69783;SDS011;57054;51.978;4.498;2023-06-24T10:47:35;5.82;;;4.35;;
69783;SDS011;57054;51.978;4.498;2023-06-24T10:50:02;5.55;;;4.90;;
69783;SDS011;57054;51.978;4.498;2023-06-24T10:52:28;5.63;;;4.03;;
69783;SDS011;57054;51.978;4.498;2023-06-24T10:54:55;5.53;;;3.78;;
69783;SDS011;57054;51.978;4.498;2023-06-24T10:57:23;5.43;;;4.10;;
69783;SDS011;57054;51.978;4.498;2023-06-24T10:59:50;4.85;;;4.07;;
69783;SDS011;57054;51.978;4.498;2023-06-24T11:02:17;11.88;;;5.47;;
69783;SDS011;57054;51.978;4.498;2023-06-24T11:04:43;8.27;;;5.07;;
69783;SDS011;57054;51.978;4.498;2023-06-24T11:07:09;4.72;;;4.32;;
69783;SDS011;57054;51.978;4.498;2023-06-24T11:09:35;4.90;;;4.22;;
69783;SDS011;57054;51.978;4.498;2023-06-24T11:12:02;7.22;;;4.35;;
69783;SDS011;57054;51.978;4.498;2023-06-24T11:14:28;3.63;;;3.33;;
69783;SDS011;57054;51.978;4.498;2023-06-24T11:16:53;5.90;;;4.65;;
69783;SDS011;57054;51.978;4.498;2023-06-24T11:19:19;3.50;;;3.15;;
69783;SDS011;57054;51.978;4.498;2023-06-24T11:21:44;3.65;;;3.35;;
69783;SDS011;57054;51.978;4.498;2023-06-24T11:24:10;5.75;;;3.78;;
69783;SDS011;57054;51.978;4.498;2023-06-24T11:26:36;5.63;;;4.45;;
69783;SDS011;57054;51.978;4.498;2023-06-24T11:29:09;5.82;;;3.80;;
69783;SDS011;57054;51.978;4.498;2023-06-24T11:31:35;4.30;;;3.92;;
69783;SDS011;57054;51.978;4.498;2023-06-24T11:34:01;4.10;;;3.63;;
69783;SDS011;57054;51.978;4.498;2023-06-24T11:36:26;4.20;;;3.80;;
69783;SDS011;57054;51.978;4.498;2023-06-24T11:38:51;4.47;;;4.15;;
69783;SDS011;57054;51.978;4.498;2023-06-24T11:41:20;4.00;;;3.65;;
69783;SDS011;57054;51.978;4.498;2023-06-24T11:43:46;4.80;;;4.03;;
69783;SDS011;57054;51.978;4.498;2023-06-24T11:46:22;3.90;;;3.50;;
69783;SDS011;57054;51.978;4.498;2023-06-24T11:48:49;4.60;;;3.47;;
69783;SDS011;57054;51.978;4.498;2023-06-24T11:51:18;3.53;;;3.22;;
69783;SDS011;57054;51.978;4.498;2023-06-24T11:53:43;4.22;;;3.80;;
69783;SDS011;57054;51.978;4.498;2023-06-24T11:56:10;3.30;;;3.00;;
69783;SDS011;57054;51.978;4.498;2023-06-24T11:58:36;4.80;;;4.30;;
69783;SDS011;57054;51.978;4.498;2023-06-24T12:01:02;3.80;;;3.50;;
69783;SDS011;57054;51.978;4.498;2023-06-24T12:03:28;6.18;;;4.05;;
69783;SDS011;57054;51.978;4.498;2023-06-24T12:05:54;4.57;;;4.18;;
69783;SDS011;57054;51.978;4.498;2023-06-24T12:08:20;4.82;;;3.90;;
69783;SDS011;57054;51.978;4.498;2023-06-24T12:10:47;3.87;;;3.57;;
69783;SDS011;57054;51.978;4.498;2023-06-24T12:13:13;4.10;;;3.78;;
69783;SDS011;57054;51.978;4.498;2023-06-24T12:15:38;4.90;;;4.40;;
69783;SDS011;57054;51.978;4.498;2023-06-24T12:18:04;6.70;;;5.30;;
69783;SDS011;57054;51.978;4.498;2023-06-24T12:20:30;9.13;;;5.32;;
69783;SDS011;57054;51.978;4.498;2023-06-24T12:22:56;6.32;;;5.28;;
69783;SDS011;57054;51.978;4.498;2023-06-24T12:25:22;7.50;;;5.15;;
69783;SDS011;57054;51.978;4.498;2023-06-24T12:27:47;9.80;;;5.40;;
69783;SDS011;57054;51.978;4.498;2023-06-24T12:30:13;4.32;;;3.92;;
69783;SDS011;57054;51.978;4.498;2023-06-24T12:32:38;6.47;;;5.03;;
69783;SDS011;57054;51.978;4.498;2023-06-24T12:35:05;5.35;;;4.95;;
69783;SDS011;57054;51.978;4.498;2023-06-24T12:37:34;5.63;;;4.80;;
69783;SDS011;57054;51.978;4.498;2023-06-24T12:40:00;5.20;;;4.68;;
69783;SDS011;57054;51.978;4.498;2023-06-24T12:42:26;9.73;;;6.10;;
69783;SDS011;57054;51.978;4.498;2023-06-24T12:44:52;6.97;;;6.28;;
69783;SDS011;57054;51.978;4.498;2023-06-24T12:47:17;6.22;;;5.32;;
69783;SDS011;57054;51.978;4.498;2023-06-24T12:49:43;7.38;;;6.78;;
69783;SDS011;57054;51.978;4.498;2023-06-24T12:52:08;6.97;;;6.32;;
69783;SDS011;57054;51.978;4.498;2023-06-24T12:54:34;7.80;;;6.15;;
69783;SDS011;57054;51.978;4.498;2023-06-24T12:57:00;6.75;;;6.15;;
69783;SDS011;57054;51.978;4.498;2023-06-24T12:59:26;7.63;;;6.28;;
69783;SDS011;57054;51.978;4.498;2023-06-24T13:01:52;7.90;;;7.13;;
69783;SDS011;57054;51.978;4.498;2023-06-24T13:04:17;6.10;;;5.60;;
69783;SDS011;57054;51.978;4.498;2023-06-24T13:06:45;13.45;;;7.30;;
69783;SDS011;57054;51.978;4.498;2023-06-24T13:09:10;9.75;;;6.90;;
69783;SDS011;57054;51.978;4.498;2023-06-24T13:11:36;14.13;;;8.45;;
69783;SDS011;57054;51.978;4.498;2023-06-24T13:14:02;8.80;;;7.93;;
69783;SDS011;57054;51.978;4.498;2023-06-24T13:16:28;9.95;;;8.00;;
69783;SDS011;57054;51.978;4.498;2023-06-24T13:18:53;7.68;;;6.80;;
69783;SDS011;57054;51.978;4.498;2023-06-24T13:21:19;6.75;;;6.15;;
69783;SDS011;57054;51.978;4.498;2023-06-24T13:23:44;9.00;;;7.05;;
69783;SDS011;57054;51.978;4.498;2023-06-24T13:26:11;6.85;;;6.13;;
69783;SDS011;57054;51.978;4.498;2023-06-24T13:28:37;7.93;;;5.35;;
69783;SDS011;57054;51.978;4.498;2023-06-24T13:31:02;6.18;;;5.55;;
69783;SDS011;57054;51.978;4.498;2023-06-24T13:33:28;4.45;;;4.15;;
69783;SDS011;57054;51.978;4.498;2023-06-24T13:35:54;4.85;;;4.32;;
69783;SDS011;57054;51.978;4.498;2023-06-24T13:38:20;6.38;;;5.70;;
69783;SDS011;57054;51.978;4.498;2023-06-24T13:40:46;5.70;;;5.05;;
69783;SDS011;57054;51.978;4.498;2023-06-24T13:43:11;7.97;;;7.03;;
69783;SDS011;57054;51.978;4.498;2023-06-24T13:45:37;6.88;;;6.18;;
69783;SDS011;57054;51.978;4.498;2023-06-24T13:48:02;6.13;;;5.55;;
69783;SDS011;57054;51.978;4.498;2023-06-24T13:50:27;6.13;;;5.72;;
69783;SDS011;57054;51.978;4.498;2023-06-24T13:52:54;5.82;;;5.32;;
69783;SDS011;57054;51.978;4.498;2023-06-24T13:55:20;5.18;;;4.80;;
69783;SDS011;57054;51.978;4.498;2023-06-24T13:57:45;4.50;;;4.20;;
69783;SDS011;57054;51.978;4.498;2023-06-24T14:00:11;4.85;;;4.50;;
69783;SDS011;57054;51.978;4.498;2023-06-24T14:02:37;7.40;;;6.28;;
69783;SDS011;57054;51.978;4.498;2023-06-24T14:05:03;7.80;;;6.63;;
69783;SDS011;57054;51.978;4.498;2023-06-24T14:07:28;6.30;;;5.80;;
69783;SDS011;57054;51.978;4.498;2023-06-24T14:09:54;7.60;;;6.88;;
69783;SDS011;57054;51.978;4.498;2023-06-24T14:12:20;5.55;;;5.15;;
69783;SDS011;57054;51.978;4.498;2023-06-24T14:14:45;5.70;;;5.30;;
69783;SDS011;57054;51.978;4.498;2023-06-24T14:17:11;6.50;;;5.90;;
69783;SDS011;57054;51.978;4.498;2023-06-24T14:19:37;4.95;;;4.55;;
69783;SDS011;57054;51.978;4.498;2023-06-24T14:22:04;4.47;;;4.18;;
69783;SDS011;57054;51.978;4.498;2023-06-24T14:24:30;6.13;;;4.15;;
69783;SDS011;57054;51.978;4.498;2023-06-24T14:26:56;4.63;;;4.32;;
69783;SDS011;57054;51.978;4.498;2023-06-24T14:29:22;4.80;;;4.40;;
69783;SDS011;57054;51.978;4.498;2023-06-24T14:31:47;4.75;;;4.45;;
69783;SDS011;57054;51.978;4.498;2023-06-24T14:34:12;4.30;;;4.00;;
69783;SDS011;57054;51.978;4.498;2023-06-24T14:36:38;5.10;;;4.70;;
69783;SDS011;57054;51.978;4.498;2023-06-24T14:39:03;5.43;;;4.93;;
69783;SDS011;57054;51.978;4.498;2023-06-24T14:41:29;6.50;;;6.00;;
69783;SDS011;57054;51.978;4.498;2023-06-24T14:43:54;5.30;;;4.90;;
69783;SDS011;57054;51.978;4.498;2023-06-24T14:46:20;4.63;;;4.32;;
69783;SDS011;57054;51.978;4.498;2023-06-24T14:48:45;9.85;;;6.40;;
69783;SDS011;57054;51.978;4.498;2023-06-24T14:51:10;5.45;;;5.03;;
69783;SDS011;57054;51.978;4.498;2023-06-24T14:53:36;5.63;;;5.22;;
69783;SDS011;57054;51.978;4.498;2023-06-24T14:56:01;5.10;;;4.70;;
69783;SDS011;57054;51.978;4.498;2023-06-24T14:58:27;7.70;;;5.88;;
69783;SDS011;57054;51.978;4.498;2023-06-24T15:00:52;5.65;;;5.15;;
69783;SDS011;57054;51.978;4.498;2023-06-24T15:03:18;5.40;;;4.90;;
69783;SDS011;57054;51.978;4.498;2023-06-24T15:05:43;5.13;;;4.72;;
69783;SDS011;57054;51.978;4.498;2023-06-24T15:08:09;4.47;;;4.18;;
69783;SDS011;57054;51.978;4.498;2023-06-24T15:10:34;4.18;;;3.88;;